sensor_id;sensor_type;location;lat;lon;timestamp;P1;durP1;ratioP1;P2;durP2;ratioP2
14933;SDS011;7560;51.364;12.384;2023-04-01T00:03:01;4.50;;;1.50;;
14933;SDS011;7560;51.364;12.384;2023-04-01T00:08:03;2.92;;;1.20;;
14933;SDS011;7560;51.364;12.384;2023-04-01T00:13:05;3.47;;;1.30;;
14933;SDS011;7560;51.364;12.384;2023-04-01T00:18:07;2.40;;;1.15;;
14933;SDS011;7560;51.364;12.384;2023-04-01T00:23:09;4.95;;;1.38;;
14933;SDS011;7560;51.364;12.384;2023-04-01T00:28:11;1.80;;;1.10;;
14933;SDS011;7560;51.364;12.384;2023-04-01T00:33:13;5.97;;;1.50;;
14933;SDS011;7560;51.364;12.384;2023-04-01T00:38:15;4.80;;;1.38;;
14933;SDS011;7560;51.364;12.384;2023-04-01T00:43:19;1.83;;;1.02;;
14933;SDS011;7560;51.364;12.384;2023-04-01T00:48:22;3.25;;;1.30;;
14933;SDS011;7560;51.364;12.384;2023-04-01T00:53:26;2.70;;;1.15;;
14933;SDS011;7560;51.364;12.384;2023-04-01T00:58:31;3.03;;;1.33;;
14933;SDS011;7560;51.364;12.384;2023-04-01T01:03:37;2.00;;;1.15;;
14933;SDS011;7560;51.364;12.384;2023-04-01T01:19:40;2.35;;;1.08;;
14933;SDS011;7560;51.364;12.384;2023-04-01T01:30:21;2.67;;;1.00;;
14933;SDS011;7560;51.364;12.384;2023-04-01T01:35:47;2.42;;;0.85;;
14933;SDS011;7560;51.364;12.384;2023-04-01T01:40:51;2.10;;;1.23;;
14933;SDS011;7560;51.364;12.384;2023-04-01T01:45:56;6.50;;;1.10;;
14933;SDS011;7560;51.364;12.384;2023-04-01T01:51:01;2.15;;;1.10;;
14933;SDS011;7560;51.364;12.384;2023-04-01T01:56:03;2.50;;;1.00;;
14933;SDS011;7560;51.364;12.384;2023-04-01T02:01:07;3.92;;;1.10;;
14933;SDS011;7560;51.364;12.384;2023-04-01T02:06:16;1.15;;;0.90;;
14933;SDS011;7560;51.364;12.384;2023-04-01T02:11:23;3.75;;;1.20;;
14933;SDS011;7560;51.364;12.384;2023-04-01T02:21:37;4.55;;;1.10;;
14933;SDS011;7560;51.364;12.384;2023-04-01T02:26:40;1.52;;;0.98;;
14933;SDS011;7560;51.364;12.384;2023-04-01T02:31:42;2.17;;;0.98;;
14933;SDS011;7560;51.364;12.384;2023-04-01T02:36:44;2.33;;;1.08;;
14933;SDS011;7560;51.364;12.384;2023-04-01T02:41:48;2.17;;;0.90;;
14933;SDS011;7560;51.364;12.384;2023-04-01T02:46:49;5.57;;;1.00;;
14933;SDS011;7560;51.364;12.384;2023-04-01T02:51:51;1.65;;;0.90;;
14933;SDS011;7560;51.364;12.384;2023-04-01T02:56:53;2.78;;;1.33;;
14933;SDS011;7560;51.364;12.384;2023-04-01T03:01:55;2.13;;;0.90;;
14933;SDS011;7560;51.364;12.384;2023-04-01T03:06:57;2.15;;;0.82;;
14933;SDS011;7560;51.364;12.384;2023-04-01T03:11:58;4.07;;;0.93;;
14933;SDS011;7560;51.364;12.384;2023-04-01T03:17:00;2.08;;;0.90;;
14933;SDS011;7560;51.364;12.384;2023-04-01T03:22:02;2.78;;;1.08;;
14933;SDS011;7560;51.364;12.384;2023-04-01T03:27:04;1.88;;;0.73;;
14933;SDS011;7560;51.364;12.384;2023-04-01T03:32:06;4.53;;;1.08;;
14933;SDS011;7560;51.364;12.384;2023-04-01T03:37:07;2.97;;;1.33;;
14933;SDS011;7560;51.364;12.384;2023-04-01T03:42:09;4.05;;;0.90;;
14933;SDS011;7560;51.364;12.384;2023-04-01T03:47:11;2.25;;;0.88;;
14933;SDS011;7560;51.364;12.384;2023-04-01T03:52:13;3.10;;;1.20;;
14933;SDS011;7560;51.364;12.384;2023-04-01T03:57:15;2.25;;;1.10;;
14933;SDS011;7560;51.364;12.384;2023-04-01T04:02:16;3.25;;;1.00;;
14933;SDS011;7560;51.364;12.384;2023-04-01T04:07:18;2.30;;;1.52;;
14933;SDS011;7560;51.364;12.384;2023-04-01T04:12:20;2.97;;;1.20;;
14933;SDS011;7560;51.364;12.384;2023-04-01T04:17:21;2.22;;;1.10;;
14933;SDS011;7560;51.364;12.384;2023-04-01T04:22:23;2.10;;;1.00;;
14933;SDS011;7560;51.364;12.384;2023-04-01T04:27:25;4.30;;;1.15;;
14933;SDS011;7560;51.364;12.384;2023-04-01T04:32:27;2.35;;;0.98;;
14933;SDS011;7560;51.364;12.384;2023-04-01T04:37:30;3.05;;;1.27;;
14933;SDS011;7560;51.364;12.384;2023-04-01T04:42:31;1.63;;;0.90;;
14933;SDS011;7560;51.364;12.384;2023-04-01T04:47:33;4.28;;;1.75;;
14933;SDS011;7560;51.364;12.384;2023-04-01T04:52:35;5.00;;;1.20;;
14933;SDS011;7560;51.364;12.384;2023-04-01T04:57:37;3.08;;;1.05;;
14933;SDS011;7560;51.364;12.384;2023-04-01T05:02:38;2.15;;;1.00;;
14933;SDS011;7560;51.364;12.384;2023-04-01T05:07:41;4.35;;;1.00;;
14933;SDS011;7560;51.364;12.384;2023-04-01T05:12:42;2.15;;;1.10;;
14933;SDS011;7560;51.364;12.384;2023-04-01T05:17:44;3.10;;;1.15;;
14933;SDS011;7560;51.364;12.384;2023-04-01T05:22:46;3.67;;;1.27;;
14933;SDS011;7560;51.364;12.384;2023-04-01T05:27:48;2.83;;;1.10;;
14933;SDS011;7560;51.364;12.384;2023-04-01T05:32:49;1.80;;;0.98;;
14933;SDS011;7560;51.364;12.384;2023-04-01T05:37:51;1.95;;;1.23;;
14933;SDS011;7560;51.364;12.384;2023-04-01T05:42:53;1.38;;;0.98;;
14933;SDS011;7560;51.364;12.384;2023-04-01T05:47:55;2.05;;;0.85;;
14933;SDS011;7560;51.364;12.384;2023-04-01T05:52:57;2.30;;;0.98;;
14933;SDS011;7560;51.364;12.384;2023-04-01T05:57:59;1.45;;;0.98;;
14933;SDS011;7560;51.364;12.384;2023-04-01T06:03:00;2.13;;;1.08;;
14933;SDS011;7560;51.364;12.384;2023-04-01T06:08:10;2.22;;;1.13;;
14933;SDS011;7560;51.364;12.384;2023-04-01T06:57:27;2.42;;;1.00;;
14933;SDS011;7560;51.364;12.384;2023-04-01T07:02:52;1.85;;;0.93;;
14933;SDS011;7560;51.364;12.384;2023-04-01T07:08:06;2.58;;;1.10;;
14933;SDS011;7560;51.364;12.384;2023-04-01T07:13:23;2.10;;;1.00;;
14933;SDS011;7560;51.364;12.384;2023-04-01T07:19:01;3.08;;;1.08;;
14933;SDS011;7560;51.364;12.384;2023-04-01T07:24:16;2.85;;;1.20;;
14933;SDS011;7560;51.364;12.384;2023-04-01T07:29:26;3.45;;;1.20;;
14933;SDS011;7560;51.364;12.384;2023-04-01T07:34:30;2.78;;;1.17;;
14933;SDS011;7560;51.364;12.384;2023-04-01T07:39:43;1.50;;;1.20;;
14933;SDS011;7560;51.364;12.384;2023-04-01T07:45:16;2.58;;;1.70;;
14933;SDS011;7560;51.364;12.384;2023-04-01T07:50:34;3.42;;;1.90;;
14933;SDS011;7560;51.364;12.384;2023-04-01T08:01:10;1.88;;;0.95;;
14933;SDS011;7560;51.364;12.384;2023-04-01T08:06:28;0.88;;;0.60;;
14933;SDS011;7560;51.364;12.384;2023-04-01T08:11:43;1.77;;;0.90;;
14933;SDS011;7560;51.364;12.384;2023-04-01T08:17:11;1.75;;;0.60;;
14933;SDS011;7560;51.364;12.384;2023-04-01T08:22:29;1.15;;;0.75;;
14933;SDS011;7560;51.364;12.384;2023-04-01T08:33:11;1.90;;;0.90;;
14933;SDS011;7560;51.364;12.384;2023-04-01T08:38:38;2.20;;;1.40;;
14933;SDS011;7560;51.364;12.384;2023-04-01T08:59:23;1.05;;;0.63;;
14933;SDS011;7560;51.364;12.384;2023-04-01T09:05:02;2.42;;;0.77;;
14933;SDS011;7560;51.364;12.384;2023-04-01T09:10:34;1.70;;;0.70;;
14933;SDS011;7560;51.364;12.384;2023-04-01T09:21:24;0.98;;;0.77;;
14933;SDS011;7560;51.364;12.384;2023-04-01T09:31:43;1.25;;;0.70;;
14933;SDS011;7560;51.364;12.384;2023-04-01T10:14:42;1.42;;;0.77;;
14933;SDS011;7560;51.364;12.384;2023-04-01T10:31:17;2.63;;;0.95;;
14933;SDS011;7560;51.364;12.384;2023-04-01T10:36:47;2.30;;;1.40;;
14933;SDS011;7560;51.364;12.384;2023-04-01T10:42:32;1.13;;;0.95;;
14933;SDS011;7560;51.364;12.384;2023-04-01T11:10:38;1.92;;;1.13;;
14933;SDS011;7560;51.364;12.384;2023-04-01T11:37:27;1.33;;;0.80;;
14933;SDS011;7560;51.364;12.384;2023-04-01T11:42:48;4.03;;;1.77;;
14933;SDS011;7560;51.364;12.384;2023-04-01T11:53:23;1.88;;;0.50;;
14933;SDS011;7560;51.364;12.384;2023-04-01T12:47:13;4.38;;;3.03;;
14933;SDS011;7560;51.364;12.384;2023-04-01T13:25:10;1.17;;;0.50;;
14933;SDS011;7560;51.364;12.384;2023-04-01T13:30:38;0.68;;;0.40;;
14933;SDS011;7560;51.364;12.384;2023-04-01T13:41:26;1.30;;;0.60;;
14933;SDS011;7560;51.364;12.384;2023-04-01T13:52:15;1.38;;;1.00;;
14933;SDS011;7560;51.364;12.384;2023-04-01T14:08:17;1.27;;;0.80;;
14933;SDS011;7560;51.364;12.384;2023-04-01T14:13:56;0.73;;;0.70;;
14933;SDS011;7560;51.364;12.384;2023-04-01T14:19:11;0.50;;;0.50;;
14933;SDS011;7560;51.364;12.384;2023-04-01T14:51:34;3.28;;;1.40;;
14933;SDS011;7560;51.364;12.384;2023-04-01T14:56:41;1.13;;;0.70;;
14933;SDS011;7560;51.364;12.384;2023-04-01T15:18:34;1.58;;;0.75;;
14933;SDS011;7560;51.364;12.384;2023-04-01T15:34:45;2.80;;;1.00;;
14933;SDS011;7560;51.364;12.384;2023-04-01T15:40:15;0.93;;;0.70;;
14933;SDS011;7560;51.364;12.384;2023-04-01T15:50:33;2.88;;;1.23;;
14933;SDS011;7560;51.364;12.384;2023-04-01T15:55:57;2.20;;;1.30;;
14933;SDS011;7560;51.364;12.384;2023-04-01T16:29:17;1.40;;;1.30;;
14933;SDS011;7560;51.364;12.384;2023-04-01T16:34:38;2.10;;;1.75;;
14933;SDS011;7560;51.364;12.384;2023-04-01T16:40:09;3.17;;;1.70;;
14933;SDS011;7560;51.364;12.384;2023-04-01T16:45:22;2.90;;;2.03;;
14933;SDS011;7560;51.364;12.384;2023-04-01T16:50:37;4.85;;;3.28;;
14933;SDS011;7560;51.364;12.384;2023-04-01T17:01:04;2.63;;;2.15;;
14933;SDS011;7560;51.364;12.384;2023-04-01T17:11:54;3.75;;;2.33;;
14933;SDS011;7560;51.364;12.384;2023-04-01T17:23:01;2.80;;;1.95;;
14933;SDS011;7560;51.364;12.384;2023-04-01T17:28:30;4.70;;;1.77;;
14933;SDS011;7560;51.364;12.384;2023-04-01T17:50:02;5.45;;;2.90;;
14933;SDS011;7560;51.364;12.384;2023-04-01T17:55:39;5.47;;;3.13;;
14933;SDS011;7560;51.364;12.384;2023-04-01T18:01:30;7.85;;;3.42;;
14933;SDS011;7560;51.364;12.384;2023-04-01T18:11:34;4.65;;;3.35;;
14933;SDS011;7560;51.364;12.384;2023-04-01T18:21:54;3.70;;;2.78;;
14933;SDS011;7560;51.364;12.384;2023-04-01T18:37:32;3.33;;;3.00;;
14933;SDS011;7560;51.364;12.384;2023-04-01T18:42:50;3.38;;;2.60;;
14933;SDS011;7560;51.364;12.384;2023-04-01T18:54:00;3.55;;;2.92;;
14933;SDS011;7560;51.364;12.384;2023-04-01T18:59:22;4.15;;;2.85;;
14933;SDS011;7560;51.364;12.384;2023-04-01T19:26:46;3.15;;;2.42;;
14933;SDS011;7560;51.364;12.384;2023-04-01T19:31:39;3.00;;;2.47;;
14933;SDS011;7560;51.364;12.384;2023-04-01T19:36:59;3.58;;;2.38;;
14933;SDS011;7560;51.364;12.384;2023-04-01T19:42:17;5.22;;;3.05;;
14933;SDS011;7560;51.364;12.384;2023-04-01T19:47:45;3.15;;;2.60;;
14933;SDS011;7560;51.364;12.384;2023-04-01T19:52:53;2.90;;;2.28;;
14933;SDS011;7560;51.364;12.384;2023-04-01T19:58:02;3.45;;;2.47;;
14933;SDS011;7560;51.364;12.384;2023-04-01T20:08:42;2.80;;;2.25;;
14933;SDS011;7560;51.364;12.384;2023-04-01T20:13:59;3.60;;;2.53;;
14933;SDS011;7560;51.364;12.384;2023-04-01T20:19:35;3.13;;;2.83;;
14933;SDS011;7560;51.364;12.384;2023-04-01T20:24:41;4.93;;;3.15;;
14933;SDS011;7560;51.364;12.384;2023-04-01T20:29:55;3.42;;;3.00;;
14933;SDS011;7560;51.364;12.384;2023-04-01T20:40:28;4.18;;;2.95;;
14933;SDS011;7560;51.364;12.384;2023-04-01T20:45:40;3.83;;;3.17;;
14933;SDS011;7560;51.364;12.384;2023-04-01T20:51:06;3.95;;;3.17;;
14933;SDS011;7560;51.364;12.384;2023-04-01T21:01:47;5.25;;;3.58;;
14933;SDS011;7560;51.364;12.384;2023-04-01T21:12:17;4.63;;;3.70;;
14933;SDS011;7560;51.364;12.384;2023-04-01T21:38:58;4.68;;;3.88;;
14933;SDS011;7560;51.364;12.384;2023-04-01T22:05:36;4.10;;;3.42;;
14933;SDS011;7560;51.364;12.384;2023-04-01T22:10:46;4.82;;;3.80;;
14933;SDS011;7560;51.364;12.384;2023-04-01T22:26:54;4.70;;;3.35;;
14933;SDS011;7560;51.364;12.384;2023-04-01T22:42:29;3.63;;;3.15;;
14933;SDS011;7560;51.364;12.384;2023-04-01T22:53:06;3.30;;;2.95;;
14933;SDS011;7560;51.364;12.384;2023-04-01T22:58:13;3.45;;;3.13;;
14933;SDS011;7560;51.364;12.384;2023-04-01T23:03:38;4.10;;;3.65;;
14933;SDS011;7560;51.364;12.384;2023-04-01T23:14:24;4.80;;;3.47;;
14933;SDS011;7560;51.364;12.384;2023-04-01T23:25:00;3.78;;;3.03;;
14933;SDS011;7560;51.364;12.384;2023-04-01T23:40:51;5.30;;;3.15;;
14933;SDS011;7560;51.364;12.384;2023-04-01T23:45:54;3.55;;;2.75;;
14933;SDS011;7560;51.364;12.384;2023-04-01T23:50:57;3.22;;;2.88;;
14933;SDS011;7560;51.364;12.384;2023-04-01T23:56:01;3.50;;;2.97;;
